首页
METAR-TAF:

METAR-TAF

机场 :

伊莎貝拉國際機場

聖多明哥, 多米尼加共和国

纬度: 18-34-32N, 经度: 069-58-53W, 海拔: 15米

当前天气观测

该预报发布于44分钟前的19:00 UTC
风速8节,风向北转东北
温度 25°C
湿度 94%
气压 1013 hPa
能見度: 6000
少量云层高于1000英尺, 积雨云.
阴天层高于1200英尺
雷暴, 雨

METAR: MDJB 251900Z 03008KT 6000 TSRA FEW010CB OVC012 25/24 Q1013 CB/NE/E/S/W/N

时间: 15:44 (19:44 UTC)

预报

该预报发布于3小时和44分钟前的16:00 UTC
预报有效从25日的 18点(UTC)到 26日的 18点(UTC)
风速10节,风向东南
能见度10公里或以上
散云层高于2300英尺
几率 30%
从 25日的 18点(UTC)到 26日的 00点(UTC)
能見度: 7000
少量云层高于2000英尺, 积雨云.
散云层高于2400英尺
雷暴, 小雨

TAF: MDJB 251600Z 2518/2618 13010KT 9999 SCT023 PROB30 2518/2600 7000 -TSRA FEW020CB SCT024

超过4000个机场的气象观测和天气预报(METAR&TAF报告)。

可查询的气象台以黄色和红色小点在地图上表示。

将鼠标移到小点上方,可查看气象台名称。

然后点击查看天气观测和预报。

如需切换地图:点击带黑十字的绿色按钮放大地图;点击带横线的绿色按钮缩小地图;或者点击绿色箭头查看邻近地区的地图。


METAR-TAF: